sensor_id;sensor_type;location;lat;lon;timestamp;P1;durP1;ratioP1;P2;durP2;ratioP2
29092;SDS011;16167;48.768;14.984;2023-02-15T00:02:04;45.78;;;18.88;;
29092;SDS011;16167;48.768;14.984;2023-02-15T00:04:32;34.78;;;17.15;;
29092;SDS011;16167;48.768;14.984;2023-02-15T00:07:18;34.80;;;16.10;;
29092;SDS011;16167;48.768;14.984;2023-02-15T00:09:46;36.35;;;18.38;;
29092;SDS011;16167;48.768;14.984;2023-02-15T00:12:15;36.88;;;17.15;;
29092;SDS011;16167;48.768;14.984;2023-02-15T00:14:44;36.55;;;16.85;;
29092;SDS011;16167;48.768;14.984;2023-02-15T00:17:12;31.80;;;15.38;;
29092;SDS011;16167;48.768;14.984;2023-02-15T00:19:40;33.35;;;16.02;;
29092;SDS011;16167;48.768;14.984;2023-02-15T00:22:08;43.67;;;16.65;;
29092;SDS011;16167;48.768;14.984;2023-02-15T00:24:38;37.65;;;16.55;;
29092;SDS011;16167;48.768;14.984;2023-02-15T00:27:06;41.47;;;17.52;;
29092;SDS011;16167;48.768;14.984;2023-02-15T00:29:35;29.30;;;14.40;;
29092;SDS011;16167;48.768;14.984;2023-02-15T00:32:03;30.02;;;16.13;;
29092;SDS011;16167;48.768;14.984;2023-02-15T00:34:32;35.33;;;16.58;;
29092;SDS011;16167;48.768;14.984;2023-02-15T00:37:00;28.55;;;15.52;;
29092;SDS011;16167;48.768;14.984;2023-02-15T00:39:28;31.45;;;15.95;;
29092;SDS011;16167;48.768;14.984;2023-02-15T00:41:58;33.80;;;16.25;;
29092;SDS011;16167;48.768;14.984;2023-02-15T00:44:26;31.40;;;15.60;;
29092;SDS011;16167;48.768;14.984;2023-02-15T00:46:54;34.65;;;16.35;;
29092;SDS011;16167;48.768;14.984;2023-02-15T00:49:22;31.88;;;15.85;;
29092;SDS011;16167;48.768;14.984;2023-02-15T00:51:50;38.28;;;17.85;;
29092;SDS011;16167;48.768;14.984;2023-02-15T00:54:18;34.92;;;15.52;;
29092;SDS011;16167;48.768;14.984;2023-02-15T00:56:46;32.33;;;15.88;;
29092;SDS011;16167;48.768;14.984;2023-02-15T00:59:16;31.85;;;16.30;;
29092;SDS011;16167;48.768;14.984;2023-02-15T01:01:44;34.67;;;16.67;;
29092;SDS011;16167;48.768;14.984;2023-02-15T01:04:12;38.00;;;17.92;;
29092;SDS011;16167;48.768;14.984;2023-02-15T01:06:40;34.95;;;17.40;;
29092;SDS011;16167;48.768;14.984;2023-02-15T01:09:08;36.40;;;17.08;;
29092;SDS011;16167;48.768;14.984;2023-02-15T01:11:36;35.05;;;16.70;;
29092;SDS011;16167;48.768;14.984;2023-02-15T01:14:05;30.38;;;15.82;;
29092;SDS011;16167;48.768;14.984;2023-02-15T01:16:34;33.80;;;16.00;;
29092;SDS011;16167;48.768;14.984;2023-02-15T01:19:02;33.08;;;16.15;;
29092;SDS011;16167;48.768;14.984;2023-02-15T01:21:30;30.05;;;15.75;;
29092;SDS011;16167;48.768;14.984;2023-02-15T01:24:00;30.65;;;15.63;;
29092;SDS011;16167;48.768;14.984;2023-02-15T01:26:28;32.95;;;16.55;;
29092;SDS011;16167;48.768;14.984;2023-02-15T01:28:57;33.00;;;16.40;;
29092;SDS011;16167;48.768;14.984;2023-02-15T01:31:25;33.97;;;16.17;;
29092;SDS011;16167;48.768;14.984;2023-02-15T01:33:54;30.75;;;15.73;;
29092;SDS011;16167;48.768;14.984;2023-02-15T01:36:22;34.80;;;16.27;;
29092;SDS011;16167;48.768;14.984;2023-02-15T01:38:51;36.83;;;15.98;;
29092;SDS011;16167;48.768;14.984;2023-02-15T01:41:19;30.60;;;12.95;;
29092;SDS011;16167;48.768;14.984;2023-02-15T01:43:49;30.45;;;15.13;;
29092;SDS011;16167;48.768;14.984;2023-02-15T01:46:20;28.48;;;13.45;;
29092;SDS011;16167;48.768;14.984;2023-02-15T01:48:52;34.53;;;14.38;;
29092;SDS011;16167;48.768;14.984;2023-02-15T01:51:26;31.15;;;14.27;;
29092;SDS011;16167;48.768;14.984;2023-02-15T01:53:57;30.73;;;14.65;;
29092;SDS011;16167;48.768;14.984;2023-02-15T01:56:29;30.65;;;14.38;;
29092;SDS011;16167;48.768;14.984;2023-02-15T01:59:02;47.03;;;15.10;;
29092;SDS011;16167;48.768;14.984;2023-02-15T02:01:34;39.33;;;14.80;;
29092;SDS011;16167;48.768;14.984;2023-02-15T02:04:06;22.77;;;10.57;;
29092;SDS011;16167;48.768;14.984;2023-02-15T02:06:41;38.07;;;14.10;;
29092;SDS011;16167;48.768;14.984;2023-02-15T02:09:10;34.15;;;15.38;;
29092;SDS011;16167;48.768;14.984;2023-02-15T02:11:39;42.38;;;18.48;;
29092;SDS011;16167;48.768;14.984;2023-02-15T02:14:09;28.83;;;14.07;;
29092;SDS011;16167;48.768;14.984;2023-02-15T02:16:39;34.03;;;15.13;;
29092;SDS011;16167;48.768;14.984;2023-02-15T02:19:35;33.60;;;14.63;;
29092;SDS011;16167;48.768;14.984;2023-02-15T02:22:32;35.95;;;15.68;;
29092;SDS011;16167;48.768;14.984;2023-02-15T02:28:40;35.58;;;14.18;;
29092;SDS011;16167;48.768;14.984;2023-02-15T02:31:43;37.00;;;14.55;;
29092;SDS011;16167;48.768;14.984;2023-02-15T02:34:22;30.92;;;13.13;;
29092;SDS011;16167;48.768;14.984;2023-02-15T02:36:58;31.75;;;13.23;;
29092;SDS011;16167;48.768;14.984;2023-02-15T02:39:37;32.42;;;13.60;;
29092;SDS011;16167;48.768;14.984;2023-02-15T02:42:13;30.52;;;13.77;;
29092;SDS011;16167;48.768;14.984;2023-02-15T02:44:47;43.83;;;13.98;;
29092;SDS011;16167;48.768;14.984;2023-02-15T02:47:21;33.05;;;12.93;;
29092;SDS011;16167;48.768;14.984;2023-02-15T02:49:59;32.95;;;13.52;;
29092;SDS011;16167;48.768;14.984;2023-02-15T02:52:36;31.92;;;12.85;;
29092;SDS011;16167;48.768;14.984;2023-02-15T02:55:07;25.05;;;12.48;;
29092;SDS011;16167;48.768;14.984;2023-02-15T02:57:40;33.00;;;13.00;;
29092;SDS011;16167;48.768;14.984;2023-02-15T03:00:14;29.80;;;14.40;;
29092;SDS011;16167;48.768;14.984;2023-02-15T03:02:44;40.67;;;14.60;;
29092;SDS011;16167;48.768;14.984;2023-02-15T03:05:17;29.98;;;13.80;;
29092;SDS011;16167;48.768;14.984;2023-02-15T03:07:49;39.10;;;14.27;;
29092;SDS011;16167;48.768;14.984;2023-02-15T03:10:20;32.72;;;12.88;;
29092;SDS011;16167;48.768;14.984;2023-02-15T03:12:50;34.47;;;13.00;;
29092;SDS011;16167;48.768;14.984;2023-02-15T03:15:20;27.05;;;11.35;;
29092;SDS011;16167;48.768;14.984;2023-02-15T03:17:52;30.23;;;13.52;;
29092;SDS011;16167;48.768;14.984;2023-02-15T03:20:25;32.40;;;12.88;;
29092;SDS011;16167;48.768;14.984;2023-02-15T03:22:58;28.45;;;12.32;;
29092;SDS011;16167;48.768;14.984;2023-02-15T03:25:30;23.15;;;10.65;;
29092;SDS011;16167;48.768;14.984;2023-02-15T03:28:02;28.40;;;10.95;;
29092;SDS011;16167;48.768;14.984;2023-02-15T03:30:33;21.90;;;10.95;;
29092;SDS011;16167;48.768;14.984;2023-02-15T03:33:03;27.33;;;11.63;;
29092;SDS011;16167;48.768;14.984;2023-02-15T03:35:36;23.63;;;10.65;;
29092;SDS011;16167;48.768;14.984;2023-02-15T03:38:11;31.17;;;11.90;;
29092;SDS011;16167;48.768;14.984;2023-02-15T03:40:44;27.88;;;10.82;;
29092;SDS011;16167;48.768;14.984;2023-02-15T03:43:32;24.85;;;10.25;;
29092;SDS011;16167;48.768;14.984;2023-02-15T03:46:08;29.33;;;10.25;;
29092;SDS011;16167;48.768;14.984;2023-02-15T03:48:41;21.05;;;10.18;;
29092;SDS011;16167;48.768;14.984;2023-02-15T03:51:16;23.58;;;10.88;;
29092;SDS011;16167;48.768;14.984;2023-02-15T03:54:03;17.98;;;9.70;;
29092;SDS011;16167;48.768;14.984;2023-02-15T03:56:34;20.98;;;10.02;;
29092;SDS011;16167;48.768;14.984;2023-02-15T03:59:04;18.30;;;10.45;;
29092;SDS011;16167;48.768;14.984;2023-02-15T04:01:55;22.48;;;10.63;;
29092;SDS011;16167;48.768;14.984;2023-02-15T04:04:33;22.13;;;10.07;;
29092;SDS011;16167;48.768;14.984;2023-02-15T04:07:05;19.60;;;10.02;;
29092;SDS011;16167;48.768;14.984;2023-02-15T04:09:34;24.90;;;10.38;;
29092;SDS011;16167;48.768;14.984;2023-02-15T04:12:20;18.02;;;9.43;;
29092;SDS011;16167;48.768;14.984;2023-02-15T04:14:48;21.27;;;10.77;;
29092;SDS011;16167;48.768;14.984;2023-02-15T04:17:35;35.00;;;11.00;;
29092;SDS011;16167;48.768;14.984;2023-02-15T04:20:03;21.95;;;10.65;;
29092;SDS011;16167;48.768;14.984;2023-02-15T04:22:52;18.42;;;10.88;;
29092;SDS011;16167;48.768;14.984;2023-02-15T04:25:37;25.83;;;11.07;;
29092;SDS011;16167;48.768;14.984;2023-02-15T04:28:06;30.52;;;12.70;;
29092;SDS011;16167;48.768;14.984;2023-02-15T04:30:34;28.45;;;13.13;;
29092;SDS011;16167;48.768;14.984;2023-02-15T04:33:02;25.65;;;13.18;;
29092;SDS011;16167;48.768;14.984;2023-02-15T04:35:30;26.52;;;12.95;;
29092;SDS011;16167;48.768;14.984;2023-02-15T04:38:01;25.08;;;14.20;;
29092;SDS011;16167;48.768;14.984;2023-02-15T04:42:57;37.10;;;14.63;;
29092;SDS011;16167;48.768;14.984;2023-02-15T04:45:25;32.42;;;13.55;;
29092;SDS011;16167;48.768;14.984;2023-02-15T04:47:53;24.92;;;13.43;;
29092;SDS011;16167;48.768;14.984;2023-02-15T04:50:21;30.23;;;15.52;;
29092;SDS011;16167;48.768;14.984;2023-02-15T04:52:49;32.35;;;16.38;;
29092;SDS011;16167;48.768;14.984;2023-02-15T04:55:19;36.90;;;15.93;;
29092;SDS011;16167;48.768;14.984;2023-02-15T05:00:15;34.40;;;15.38;;
29092;SDS011;16167;48.768;14.984;2023-02-15T05:02:44;27.27;;;14.55;;
29092;SDS011;16167;48.768;14.984;2023-02-15T05:05:12;35.75;;;16.42;;
29092;SDS011;16167;48.768;14.984;2023-02-15T05:07:42;29.08;;;14.80;;
29092;SDS011;16167;48.768;14.984;2023-02-15T05:10:11;34.40;;;15.57;;
29092;SDS011;16167;48.768;14.984;2023-02-15T05:12:40;43.30;;;20.38;;
29092;SDS011;16167;48.768;14.984;2023-02-15T05:17:36;61.80;;;29.60;;
29092;SDS011;16167;48.768;14.984;2023-02-15T05:20:05;41.28;;;22.05;;
29092;SDS011;16167;48.768;14.984;2023-02-15T05:22:34;32.00;;;16.42;;
29092;SDS011;16167;48.768;14.984;2023-02-15T05:25:02;37.67;;;17.33;;
29092;SDS011;16167;48.768;14.984;2023-02-15T05:27:49;34.05;;;18.15;;
29092;SDS011;16167;48.768;14.984;2023-02-15T05:30:34;32.60;;;15.98;;
29092;SDS011;16167;48.768;14.984;2023-02-15T05:33:03;28.90;;;15.95;;
29092;SDS011;16167;48.768;14.984;2023-02-15T05:35:31;30.20;;;15.60;;
29092;SDS011;16167;48.768;14.984;2023-02-15T05:37:59;33.72;;;17.40;;
29092;SDS011;16167;48.768;14.984;2023-02-15T05:40:27;32.88;;;17.45;;
29092;SDS011;16167;48.768;14.984;2023-02-15T05:42:57;34.95;;;18.08;;
29092;SDS011;16167;48.768;14.984;2023-02-15T05:45:25;31.35;;;16.75;;
29092;SDS011;16167;48.768;14.984;2023-02-15T05:47:53;35.03;;;16.23;;
29092;SDS011;16167;48.768;14.984;2023-02-15T05:50:24;28.10;;;14.10;;
29092;SDS011;16167;48.768;14.984;2023-02-15T05:52:52;30.15;;;14.75;;
29092;SDS011;16167;48.768;14.984;2023-02-15T05:55:20;31.92;;;16.08;;
29092;SDS011;16167;48.768;14.984;2023-02-15T05:57:48;31.77;;;14.48;;
29092;SDS011;16167;48.768;14.984;2023-02-15T06:00:18;31.10;;;15.25;;
29092;SDS011;16167;48.768;14.984;2023-02-15T06:02:46;29.52;;;15.80;;
29092;SDS011;16167;48.768;14.984;2023-02-15T06:05:15;34.83;;;17.83;;
29092;SDS011;16167;48.768;14.984;2023-02-15T06:07:43;32.45;;;16.42;;
29092;SDS011;16167;48.768;14.984;2023-02-15T06:10:11;34.67;;;16.75;;
29092;SDS011;16167;48.768;14.984;2023-02-15T06:12:39;30.55;;;15.43;;
29092;SDS011;16167;48.768;14.984;2023-02-15T06:15:08;34.42;;;17.90;;
29092;SDS011;16167;48.768;14.984;2023-02-15T06:17:37;25.67;;;13.17;;
29092;SDS011;16167;48.768;14.984;2023-02-15T06:20:08;35.92;;;17.13;;
29092;SDS011;16167;48.768;14.984;2023-02-15T06:22:37;39.50;;;18.90;;
29092;SDS011;16167;48.768;14.984;2023-02-15T06:25:05;40.50;;;17.80;;
29092;SDS011;16167;48.768;14.984;2023-02-15T06:27:36;31.25;;;16.80;;
29092;SDS011;16167;48.768;14.984;2023-02-15T06:30:04;32.72;;;15.85;;
29092;SDS011;16167;48.768;14.984;2023-02-15T06:32:34;32.03;;;15.13;;
29092;SDS011;16167;48.768;14.984;2023-02-15T06:35:04;38.75;;;18.17;;
29092;SDS011;16167;48.768;14.984;2023-02-15T06:37:33;31.52;;;14.88;;
29092;SDS011;16167;48.768;14.984;2023-02-15T06:40:01;29.27;;;16.30;;
29092;SDS011;16167;48.768;14.984;2023-02-15T06:42:31;34.92;;;16.52;;
29092;SDS011;16167;48.768;14.984;2023-02-15T06:44:59;35.45;;;14.45;;
29092;SDS011;16167;48.768;14.984;2023-02-15T06:47:27;33.08;;;14.77;;
29092;SDS011;16167;48.768;14.984;2023-02-15T06:49:55;25.52;;;13.93;;
29092;SDS011;16167;48.768;14.984;2023-02-15T06:52:25;34.17;;;15.20;;
29092;SDS011;16167;48.768;14.984;2023-02-15T06:54:54;31.33;;;14.90;;
29092;SDS011;16167;48.768;14.984;2023-02-15T06:57:22;33.55;;;16.65;;
29092;SDS011;16167;48.768;14.984;2023-02-15T06:59:51;36.60;;;15.88;;
29092;SDS011;16167;48.768;14.984;2023-02-15T07:02:19;36.72;;;16.75;;
29092;SDS011;16167;48.768;14.984;2023-02-15T07:04:47;31.70;;;14.35;;
29092;SDS011;16167;48.768;14.984;2023-02-15T07:07:15;36.67;;;17.42;;
29092;SDS011;16167;48.768;14.984;2023-02-15T07:09:45;31.02;;;15.07;;
29092;SDS011;16167;48.768;14.984;2023-02-15T07:12:13;24.83;;;10.95;;
29092;SDS011;16167;48.768;14.984;2023-02-15T07:14:58;25.27;;;13.00;;
29092;SDS011;16167;48.768;14.984;2023-02-15T07:17:26;27.85;;;12.40;;
29092;SDS011;16167;48.768;14.984;2023-02-15T07:20:03;29.60;;;14.85;;
29092;SDS011;16167;48.768;14.984;2023-02-15T07:22:34;25.58;;;12.98;;
29092;SDS011;16167;48.768;14.984;2023-02-15T07:25:05;27.02;;;12.52;;
29092;SDS011;16167;48.768;14.984;2023-02-15T07:27:34;25.92;;;11.80;;
29092;SDS011;16167;48.768;14.984;2023-02-15T07:30:03;27.15;;;12.45;;
29092;SDS011;16167;48.768;14.984;2023-02-15T07:32:33;23.48;;;12.70;;
29092;SDS011;16167;48.768;14.984;2023-02-15T07:35:01;23.43;;;9.63;;
29092;SDS011;16167;48.768;14.984;2023-02-15T07:37:29;23.80;;;11.27;;
29092;SDS011;16167;48.768;14.984;2023-02-15T07:39:58;27.65;;;12.95;;
29092;SDS011;16167;48.768;14.984;2023-02-15T07:42:27;25.10;;;11.88;;
29092;SDS011;16167;48.768;14.984;2023-02-15T07:44:57;22.50;;;11.15;;
29092;SDS011;16167;48.768;14.984;2023-02-15T07:47:26;20.45;;;10.10;;
29092;SDS011;16167;48.768;14.984;2023-02-15T07:49:54;23.83;;;11.50;;
29092;SDS011;16167;48.768;14.984;2023-02-15T07:52:22;30.23;;;14.57;;
29092;SDS011;16167;48.768;14.984;2023-02-15T07:54:50;29.77;;;13.20;;
29092;SDS011;16167;48.768;14.984;2023-02-15T07:57:18;24.50;;;11.90;;
29092;SDS011;16167;48.768;14.984;2023-02-15T07:59:47;23.23;;;12.02;;
29092;SDS011;16167;48.768;14.984;2023-02-15T08:02:15;22.98;;;12.30;;
29092;SDS011;16167;48.768;14.984;2023-02-15T08:04:44;24.48;;;12.20;;
29092;SDS011;16167;48.768;14.984;2023-02-15T08:07:12;23.92;;;13.07;;
29092;SDS011;16167;48.768;14.984;2023-02-15T08:09:40;22.75;;;12.07;;
29092;SDS011;16167;48.768;14.984;2023-02-15T08:12:08;23.23;;;11.52;;
29092;SDS011;16167;48.768;14.984;2023-02-15T08:14:36;20.80;;;11.13;;
29092;SDS011;16167;48.768;14.984;2023-02-15T08:17:05;21.42;;;12.00;;
29092;SDS011;16167;48.768;14.984;2023-02-15T08:22:02;22.70;;;11.65;;
29092;SDS011;16167;48.768;14.984;2023-02-15T08:27:00;24.05;;;12.27;;
29092;SDS011;16167;48.768;14.984;2023-02-15T08:29:32;22.02;;;11.68;;
29092;SDS011;16167;48.768;14.984;2023-02-15T08:32:02;20.67;;;12.32;;
29092;SDS011;16167;48.768;14.984;2023-02-15T08:34:34;18.00;;;10.43;;
29092;SDS011;16167;48.768;14.984;2023-02-15T08:37:04;18.52;;;10.50;;
29092;SDS011;16167;48.768;14.984;2023-02-15T08:39:33;18.58;;;9.43;;
29092;SDS011;16167;48.768;14.984;2023-02-15T08:42:01;18.73;;;11.02;;
29092;SDS011;16167;48.768;14.984;2023-02-15T08:44:29;18.23;;;10.63;;
29092;SDS011;16167;48.768;14.984;2023-02-15T08:46:57;20.75;;;11.82;;
29092;SDS011;16167;48.768;14.984;2023-02-15T08:49:30;15.63;;;9.02;;
29092;SDS011;16167;48.768;14.984;2023-02-15T08:51:59;17.60;;;10.02;;
29092;SDS011;16167;48.768;14.984;2023-02-15T08:54:27;18.67;;;10.00;;
29092;SDS011;16167;48.768;14.984;2023-02-15T08:56:56;17.65;;;10.57;;
29092;SDS011;16167;48.768;14.984;2023-02-15T08:59:24;18.88;;;10.73;;
29092;SDS011;16167;48.768;14.984;2023-02-15T09:01:53;19.70;;;11.18;;
29092;SDS011;16167;48.768;14.984;2023-02-15T09:04:21;20.02;;;10.95;;
29092;SDS011;16167;48.768;14.984;2023-02-15T09:06:50;22.00;;;12.50;;
29092;SDS011;16167;48.768;14.984;2023-02-15T09:09:20;19.63;;;11.35;;
29092;SDS011;16167;48.768;14.984;2023-02-15T09:11:48;18.77;;;11.38;;
29092;SDS011;16167;48.768;14.984;2023-02-15T09:14:24;20.08;;;10.63;;
29092;SDS011;16167;48.768;14.984;2023-02-15T09:16:53;16.48;;;10.05;;
29092;SDS011;16167;48.768;14.984;2023-02-15T09:19:22;19.13;;;11.70;;
29092;SDS011;16167;48.768;14.984;2023-02-15T09:21:51;17.10;;;10.32;;
29092;SDS011;16167;48.768;14.984;2023-02-15T09:24:20;17.85;;;10.70;;
29092;SDS011;16167;48.768;14.984;2023-02-15T09:26:48;16.70;;;9.98;;
29092;SDS011;16167;48.768;14.984;2023-02-15T09:29:17;19.02;;;10.35;;
29092;SDS011;16167;48.768;14.984;2023-02-15T09:31:46;17.57;;;10.23;;
29092;SDS011;16167;48.768;14.984;2023-02-15T09:34:17;17.83;;;10.82;;
29092;SDS011;16167;48.768;14.984;2023-02-15T09:36:46;15.07;;;9.80;;
29092;SDS011;16167;48.768;14.984;2023-02-15T09:39:15;15.43;;;9.35;;
29092;SDS011;16167;48.768;14.984;2023-02-15T09:41:50;16.15;;;9.90;;
29092;SDS011;16167;48.768;14.984;2023-02-15T09:44:49;15.02;;;9.20;;
29092;SDS011;16167;48.768;14.984;2023-02-15T09:47:41;17.02;;;10.23;;
29092;SDS011;16167;48.768;14.984;2023-02-15T09:50:27;17.90;;;9.98;;
29092;SDS011;16167;48.768;14.984;2023-02-15T09:53:08;20.02;;;11.02;;
29092;SDS011;16167;48.768;14.984;2023-02-15T09:55:51;18.05;;;10.70;;
29092;SDS011;16167;48.768;14.984;2023-02-15T09:58:28;16.65;;;9.63;;
29092;SDS011;16167;48.768;14.984;2023-02-15T10:01:03;16.48;;;10.35;;
29092;SDS011;16167;48.768;14.984;2023-02-15T10:03:42;14.90;;;9.70;;
29092;SDS011;16167;48.768;14.984;2023-02-15T10:06:31;14.68;;;9.27;;
29092;SDS011;16167;48.768;14.984;2023-02-15T10:09:10;14.70;;;9.38;;
29092;SDS011;16167;48.768;14.984;2023-02-15T10:12:07;17.63;;;10.23;;
29092;SDS011;16167;48.768;14.984;2023-02-15T10:15:06;17.17;;;9.45;;
29092;SDS011;16167;48.768;14.984;2023-02-15T10:20:49;15.75;;;9.30;;
29092;SDS011;16167;48.768;14.984;2023-02-15T10:23:32;13.20;;;8.70;;
29092;SDS011;16167;48.768;14.984;2023-02-15T10:26:22;14.45;;;9.30;;
29092;SDS011;16167;48.768;14.984;2023-02-15T10:28:58;17.50;;;10.63;;
29092;SDS011;16167;48.768;14.984;2023-02-15T10:31:37;15.00;;;9.65;;
29092;SDS011;16167;48.768;14.984;2023-02-15T10:34:15;18.20;;;10.55;;
29092;SDS011;16167;48.768;14.984;2023-02-15T10:39:39;17.33;;;10.18;;
29092;SDS011;16167;48.768;14.984;2023-02-15T10:42:19;21.35;;;12.23;;
29092;SDS011;16167;48.768;14.984;2023-02-15T10:44:58;17.38;;;10.93;;
29092;SDS011;16167;48.768;14.984;2023-02-15T10:47:40;18.17;;;11.50;;
29092;SDS011;16167;48.768;14.984;2023-02-15T10:50:36;16.80;;;11.00;;
29092;SDS011;16167;48.768;14.984;2023-02-15T10:53:16;15.95;;;10.98;;
29092;SDS011;16167;48.768;14.984;2023-02-15T10:55:56;18.80;;;11.43;;
29092;SDS011;16167;48.768;14.984;2023-02-15T10:58:38;15.82;;;10.25;;
29092;SDS011;16167;48.768;14.984;2023-02-15T11:01:15;18.58;;;10.98;;
29092;SDS011;16167;48.768;14.984;2023-02-15T11:04:05;17.17;;;11.55;;
29092;SDS011;16167;48.768;14.984;2023-02-15T11:06:43;15.48;;;10.20;;
29092;SDS011;16167;48.768;14.984;2023-02-15T11:09:18;13.85;;;10.15;;
29092;SDS011;16167;48.768;14.984;2023-02-15T11:11:50;15.18;;;10.57;;
29092;SDS011;16167;48.768;14.984;2023-02-15T11:14:23;14.20;;;9.90;;
29092;SDS011;16167;48.768;14.984;2023-02-15T11:16:59;13.48;;;10.15;;
29092;SDS011;16167;48.768;14.984;2023-02-15T11:19:33;17.80;;;11.70;;
29092;SDS011;16167;48.768;14.984;2023-02-15T11:22:05;16.98;;;10.68;;
29092;SDS011;16167;48.768;14.984;2023-02-15T11:27:13;13.05;;;8.95;;
29092;SDS011;16167;48.768;14.984;2023-02-15T11:29:50;11.82;;;9.02;;
29092;SDS011;16167;48.768;14.984;2023-02-15T11:32:22;13.27;;;9.60;;
29092;SDS011;16167;48.768;14.984;2023-02-15T11:34:55;12.15;;;8.68;;
29092;SDS011;16167;48.768;14.984;2023-02-15T11:37:29;12.52;;;9.30;;
29092;SDS011;16167;48.768;14.984;2023-02-15T11:40:03;11.50;;;8.82;;
29092;SDS011;16167;48.768;14.984;2023-02-15T11:42:48;11.43;;;8.95;;
29092;SDS011;16167;48.768;14.984;2023-02-15T11:45:22;16.15;;;11.70;;
29092;SDS011;16167;48.768;14.984;2023-02-15T11:47:54;10.63;;;8.65;;
29092;SDS011;16167;48.768;14.984;2023-02-15T11:50:25;11.93;;;9.13;;
29092;SDS011;16167;48.768;14.984;2023-02-15T11:52:56;12.05;;;8.73;;
29092;SDS011;16167;48.768;14.984;2023-02-15T11:55:27;12.38;;;9.07;;
29092;SDS011;16167;48.768;14.984;2023-02-15T11:57:57;10.90;;;8.90;;
29092;SDS011;16167;48.768;14.984;2023-02-15T12:00:32;11.05;;;8.48;;
29092;SDS011;16167;48.768;14.984;2023-02-15T12:03:07;10.93;;;8.35;;
29092;SDS011;16167;48.768;14.984;2023-02-15T12:05:44;10.75;;;8.57;;
29092;SDS011;16167;48.768;14.984;2023-02-15T12:08:18;10.80;;;8.75;;
29092;SDS011;16167;48.768;14.984;2023-02-15T12:10:55;10.25;;;8.32;;
29092;SDS011;16167;48.768;14.984;2023-02-15T12:13:28;10.40;;;8.77;;
29092;SDS011;16167;48.768;14.984;2023-02-15T12:15:57;13.25;;;8.93;;
29092;SDS011;16167;48.768;14.984;2023-02-15T12:18:34;10.35;;;8.23;;
29092;SDS011;16167;48.768;14.984;2023-02-15T12:21:07;9.60;;;8.23;;
29092;SDS011;16167;48.768;14.984;2023-02-15T12:23:40;10.25;;;8.30;;
29092;SDS011;16167;48.768;14.984;2023-02-15T12:26:14;12.63;;;9.02;;
29092;SDS011;16167;48.768;14.984;2023-02-15T12:28:50;10.52;;;9.15;;
29092;SDS011;16167;48.768;14.984;2023-02-15T12:31:21;11.15;;;8.88;;
29092;SDS011;16167;48.768;14.984;2023-02-15T12:33:55;11.85;;;8.82;;
29092;SDS011;16167;48.768;14.984;2023-02-15T12:36:29;10.32;;;8.70;;
29092;SDS011;16167;48.768;14.984;2023-02-15T12:39:03;10.63;;;8.13;;
29092;SDS011;16167;48.768;14.984;2023-02-15T12:41:32;10.27;;;8.50;;
29092;SDS011;16167;48.768;14.984;2023-02-15T12:44:05;9.30;;;7.88;;
29092;SDS011;16167;48.768;14.984;2023-02-15T12:46:42;10.27;;;8.65;;
29092;SDS011;16167;48.768;14.984;2023-02-15T12:49:24;10.57;;;8.50;;
29092;SDS011;16167;48.768;14.984;2023-02-15T12:51:55;10.05;;;8.43;;
29092;SDS011;16167;48.768;14.984;2023-02-15T12:54:37;10.38;;;8.00;;
29092;SDS011;16167;48.768;14.984;2023-02-15T12:57:14;9.43;;;8.02;;
29092;SDS011;16167;48.768;14.984;2023-02-15T12:59:53;12.15;;;9.38;;
29092;SDS011;16167;48.768;14.984;2023-02-15T13:02:23;10.45;;;8.23;;
29092;SDS011;16167;48.768;14.984;2023-02-15T13:04:55;10.73;;;8.93;;
29092;SDS011;16167;48.768;14.984;2023-02-15T13:07:29;10.20;;;8.77;;
29092;SDS011;16167;48.768;14.984;2023-02-15T13:09:58;10.05;;;8.95;;
29092;SDS011;16167;48.768;14.984;2023-02-15T13:12:28;11.45;;;9.02;;
29092;SDS011;16167;48.768;14.984;2023-02-15T13:14:58;10.90;;;9.35;;
29092;SDS011;16167;48.768;14.984;2023-02-15T13:17:29;12.88;;;10.45;;
29092;SDS011;16167;48.768;14.984;2023-02-15T13:20:02;11.80;;;10.05;;
29092;SDS011;16167;48.768;14.984;2023-02-15T13:22:38;13.88;;;11.25;;
29092;SDS011;16167;48.768;14.984;2023-02-15T13:25:11;10.63;;;9.43;;
29092;SDS011;16167;48.768;14.984;2023-02-15T13:27:44;11.18;;;9.23;;
29092;SDS011;16167;48.768;14.984;2023-02-15T13:30:23;12.68;;;10.55;;
29092;SDS011;16167;48.768;14.984;2023-02-15T13:32:54;12.27;;;10.65;;
29092;SDS011;16167;48.768;14.984;2023-02-15T13:35:25;12.00;;;10.45;;
29092;SDS011;16167;48.768;14.984;2023-02-15T13:38:11;11.60;;;10.07;;
29092;SDS011;16167;48.768;14.984;2023-02-15T13:40:48;12.57;;;10.20;;
29092;SDS011;16167;48.768;14.984;2023-02-15T13:43:25;10.52;;;9.20;;
29092;SDS011;16167;48.768;14.984;2023-02-15T13:46:06;11.40;;;9.82;;
29092;SDS011;16167;48.768;14.984;2023-02-15T13:48:44;11.93;;;9.68;;
29092;SDS011;16167;48.768;14.984;2023-02-15T13:51:20;11.90;;;10.18;;
29092;SDS011;16167;48.768;14.984;2023-02-15T13:57:04;12.30;;;10.25;;
29092;SDS011;16167;48.768;14.984;2023-02-15T13:59:46;12.45;;;10.65;;
29092;SDS011;16167;48.768;14.984;2023-02-15T14:02:32;13.40;;;10.35;;
29092;SDS011;16167;48.768;14.984;2023-02-15T14:05:14;16.48;;;11.52;;
29092;SDS011;16167;48.768;14.984;2023-02-15T14:08:00;13.25;;;11.20;;
29092;SDS011;16167;48.768;14.984;2023-02-15T14:10:40;16.20;;;11.60;;
29092;SDS011;16167;48.768;14.984;2023-02-15T14:13:28;15.85;;;11.90;;
29092;SDS011;16167;48.768;14.984;2023-02-15T14:16:20;14.27;;;12.70;;
29092;SDS011;16167;48.768;14.984;2023-02-15T14:19:02;16.17;;;12.30;;
29092;SDS011;16167;48.768;14.984;2023-02-15T14:21:42;15.23;;;12.90;;
29092;SDS011;16167;48.768;14.984;2023-02-15T14:24:26;17.60;;;13.77;;
29092;SDS011;16167;48.768;14.984;2023-02-15T14:27:06;20.17;;;13.93;;
29092;SDS011;16167;48.768;14.984;2023-02-15T14:29:46;18.48;;;14.57;;
29092;SDS011;16167;48.768;14.984;2023-02-15T14:32:20;16.98;;;14.15;;
29092;SDS011;16167;48.768;14.984;2023-02-15T14:34:56;18.88;;;14.48;;
29092;SDS011;16167;48.768;14.984;2023-02-15T14:37:31;19.50;;;15.20;;
29092;SDS011;16167;48.768;14.984;2023-02-15T14:40:10;23.08;;;16.20;;
29092;SDS011;16167;48.768;14.984;2023-02-15T14:43:07;23.55;;;17.23;;
29092;SDS011;16167;48.768;14.984;2023-02-15T14:45:55;23.77;;;17.38;;
29092;SDS011;16167;48.768;14.984;2023-02-15T14:48:28;24.33;;;16.52;;
29092;SDS011;16167;48.768;14.984;2023-02-15T14:50:59;24.17;;;17.25;;
29092;SDS011;16167;48.768;14.984;2023-02-15T14:53:35;27.45;;;18.13;;
29092;SDS011;16167;48.768;14.984;2023-02-15T14:56:15;27.42;;;18.40;;
29092;SDS011;16167;48.768;14.984;2023-02-15T14:58:57;29.77;;;19.58;;
29092;SDS011;16167;48.768;14.984;2023-02-15T15:01:28;30.42;;;20.08;;
29092;SDS011;16167;48.768;14.984;2023-02-15T15:03:58;27.95;;;20.00;;
29092;SDS011;16167;48.768;14.984;2023-02-15T15:06:30;30.30;;;20.65;;
29092;SDS011;16167;48.768;14.984;2023-02-15T15:09:08;26.98;;;18.75;;
29092;SDS011;16167;48.768;14.984;2023-02-15T15:11:43;27.02;;;19.70;;
29092;SDS011;16167;48.768;14.984;2023-02-15T15:17:10;26.35;;;19.63;;